Genoa, NY (13071)

11:19 AM EST on March 02, 2015 (GMT -0500)
Valley View Gardens | Change Station
CLOSE
Current Station
Personal Weather Station
Location: Genoa, NY
Elevation: 1044 ft
Nearby Weather Stations

Elev 1044 ft 42.66 °N, 76.55 °W | Updated 17 seconds ago

Overcast
Overcast
23.4 °F
Feels Like 11 °F
N
14.0
Wind Variable Wind from WNW
Gusts 18.0 mph

Today
High -- | Low -- °F
--% Chance of Precip.
Yesterday
High -- | Low -- °F
Precip. -- in
6:40 AM 5:56 PM
Waxing Gibbous, 92% visible
Pressure 30.24 in
Visibility 7.0 miles
Clouds Mostly Cloudy 2200 ft
Windchill 11 °F
Dew Point 18 °F
Humidity 79%
Rainfall 0.00 in
Snow Depth Not available.
UV 2 out of 12
Pollen .40 out of 12
Air Quality Not available.
Flu Activity Not available.
METAR KITH 021556Z 30019G25KT 7SM -SN BKN022 M04/M09 A3019 RMK AO2 T10441088 SNB1459 P0000 SLP238

More Conditions Fewer Conditions

Pressure 30.24 in
Visibility 7.0 miles
Clouds Mostly Cloudy 2200 ft
Windchill 11 °F
Dew Point 18 °F
Humidity 79%
Rainfall 0.00 in
Snow Depth Not available.
UV 2 out of 12
Pollen .40 out of 12
Air Quality Not available.
Flu Activity Not available.
METAR KITH 021556Z 30019G25KT 7SM -SN BKN022 M04/M09 A3019 RMK AO2 T10441088 SNB1459 P0000 SLP238

More Conditions Fewer Conditions

10-Day Weather Forecast

Almanac

Astronomy

Mar. 02, 2015 Rise Set
Actual Time
Civil Twilight
Nautical Twilight
Astronomical Twilight
Moon
Length of Visible Light
Length of Day
Tomorrow will be .
, % of the Moon is Illuminated

Today's Extremes

State Highs State Lows

Community

WunderPhotos

Upload Photos

1,801,835 photos uploaded!

WunderBlogs® & News

Nearby

Air Quality

  Air Quality AQ Index Pollutant
Not available.

Snow Depth

Station Depth Elevation

Earthquake Activity

City Distance Mag. Time & Date
Minimum magnitude displayed is 2.5.

Coastal Water Temperatures

Place Temperature

Nearby Weather Stations